Greenbackville, Virginia
Current Conditions -  °F | °C
As of 11:54 PM on Saturday 25 Oct 2014 (Local Time) from KWAL Reporting Station
Clear Clear  
Wind Chill: 16°   Ceiling: Unl
Heat Index: 16°   Visibility: 10mi
Dew Point:   Wind: 9mph
Humidity: 62%   Direction: 250°WSW
Pressure: 29.73"   Gusts: NA
Location:  38.01°N, 75.39°W
Report Text: KWAL 260354Z 25008KT 10SM CLR 16/08 A2973 RMK AO2 SLP066 T01560083
Loading
Personal Weather Stations






























Interactive Weather Map
Tropical Storm Tracking
New forecast layout! Learn more

10-Day Weather Forecast

Advertisements
Track Severe Weather on mobile